createdAt,value
2023-03-21T00:01:54.759Z,25.38
2023-03-21T00:04:23.822Z,29.65
2023-03-21T00:06:52.115Z,23.30
2023-03-21T00:09:22.692Z,24.58
2023-03-21T00:11:50.936Z,31.35
2023-03-21T00:14:20.231Z,26.58
2023-03-21T00:16:51.101Z,24.63
2023-03-21T00:19:21.107Z,23.50
2023-03-21T00:24:42.265Z,26.02
2023-03-21T00:27:34.549Z,21.58
2023-03-21T00:29:59.458Z,26.33
2023-03-21T00:32:28.010Z,23.33
2023-03-21T00:35:13.972Z,22.00
2023-03-21T00:37:44.811Z,26.02
2023-03-21T00:40:35.230Z,24.35
2023-03-21T00:43:03.394Z,28.70
2023-03-21T00:45:31.938Z,18.25
2023-03-21T00:48:00.466Z,25.63
2023-03-21T00:50:29.051Z,22.42
2023-03-21T00:52:57.328Z,26.15
2023-03-21T00:55:27.439Z,18.55
2023-03-21T00:58:01.482Z,22.08
2023-03-21T01:00:33.189Z,17.90
2023-03-21T01:03:17.458Z,24.13
2023-03-21T01:06:07.135Z,17.55
2023-03-21T01:08:53.577Z,28.10
2023-03-21T01:11:25.571Z,21.10
2023-03-21T01:14:04.270Z,15.07
2023-03-21T01:16:39.675Z,17.58
2023-03-21T01:19:14.932Z,24.40
2023-03-21T01:21:50.677Z,20.40
2023-03-21T01:24:19.073Z,25.42
2023-03-21T01:26:48.828Z,20.77
2023-03-21T01:29:17.109Z,19.85
2023-03-21T01:31:46.604Z,26.10
2023-03-21T01:34:14.982Z,20.52
2023-03-21T01:36:43.268Z,20.42
2023-03-21T01:39:11.782Z,20.70
2023-03-21T01:41:44.276Z,28.00
2023-03-21T01:44:18.144Z,21.63
2023-03-21T01:47:03.531Z,24.48
2023-03-21T01:49:40.506Z,23.50
2023-03-21T01:52:19.132Z,21.30
2023-03-21T01:54:53.104Z,23.38
2023-03-21T01:57:30.014Z,19.50
2023-03-21T02:00:12.736Z,26.73
2023-03-21T02:02:52.275Z,17.75
2023-03-21T02:05:24.800Z,18.67
2023-03-21T02:07:53.993Z,17.40
2023-03-21T02:10:22.617Z,20.08
2023-03-21T02:12:51.408Z,23.08
2023-03-21T02:15:21.338Z,18.23
2023-03-21T02:17:54.377Z,19.45
2023-03-21T02:20:51.232Z,23.88
2023-03-21T02:23:46.003Z,24.75
2023-03-21T02:26:48.156Z,25.35
2023-03-21T02:32:16.482Z,23.98
2023-03-21T02:35:17.602Z,25.87
2023-03-21T02:37:55.228Z,19.48
2023-03-21T02:40:34.007Z,21.30
2023-03-21T02:43:09.365Z,24.40
2023-03-21T02:45:49.711Z,18.38
2023-03-21T02:48:29.294Z,23.90
2023-03-21T02:51:23.071Z,24.27
2023-03-21T02:54:23.713Z,19.30
2023-03-21T02:56:46.084Z,26.35
2023-03-21T02:59:17.625Z,17.90
2023-03-21T03:01:45.946Z,20.10
2023-03-21T03:04:21.829Z,28.65
2023-03-21T03:07:11.986Z,25.38
2023-03-21T03:09:50.319Z,30.38
2023-03-21T03:12:23.954Z,21.20
2023-03-21T03:15:03.612Z,21.88
2023-03-21T03:17:47.669Z,19.98
2023-03-21T03:20:24.700Z,17.42
2023-03-21T03:22:57.941Z,22.23
2023-03-21T03:25:42.190Z,30.45
2023-03-21T03:28:13.232Z,24.90
2023-03-21T03:30:48.811Z,33.30
2023-03-21T03:33:27.530Z,22.77
2023-03-21T03:36:04.931Z,25.17
2023-03-21T03:38:36.939Z,21.08
2023-03-21T03:41:11.606Z,19.88
2023-03-21T03:43:43.322Z,31.33
2023-03-21T03:46:13.572Z,25.98
2023-03-21T03:48:46.836Z,27.75
2023-03-21T03:51:18.860Z,29.33
2023-03-21T03:53:52.886Z,23.88
2023-03-21T03:56:22.621Z,31.77
2023-03-21T03:58:51.026Z,27.98
2023-03-21T04:01:19.404Z,28.95
2023-03-21T04:03:52.994Z,26.52
2023-03-21T04:06:29.120Z,27.70
2023-03-21T04:09:00.119Z,28.73
2023-03-21T04:11:31.430Z,29.23
2023-03-21T04:13:59.730Z,24.45
2023-03-21T04:16:28.422Z,30.38
2023-03-21T04:18:56.790Z,29.65
2023-03-21T04:21:25.297Z,30.42
2023-03-21T04:23:54.905Z,28.60
2023-03-21T04:26:23.875Z,24.48
2023-03-21T04:28:53.578Z,26.25
2023-03-21T04:31:25.994Z,24.65
2023-03-21T04:33:56.153Z,26.17
2023-03-21T04:36:28.917Z,28.77
2023-03-21T04:39:01.045Z,19.90
2023-03-21T04:41:30.597Z,33.72
2023-03-21T04:44:00.343Z,24.05
2023-03-21T04:46:28.764Z,27.13
2023-03-21T04:48:57.151Z,26.48
2023-03-21T04:51:25.552Z,32.85
2023-03-21T04:53:57.664Z,30.33
2023-03-21T04:56:32.122Z,30.25
2023-03-21T04:59:04.602Z,26.75
2023-03-21T05:01:32.988Z,30.20
2023-03-21T05:04:02.467Z,29.45
2023-03-21T05:06:33.008Z,26.63
2023-03-21T05:09:05.529Z,22.52
2023-03-21T05:11:38.049Z,28.20
2023-03-21T05:14:08.592Z,28.97
2023-03-21T05:16:38.947Z,29.77
2023-03-21T05:19:07.409Z,27.55
2023-03-21T05:21:41.988Z,27.90
2023-03-21T05:24:13.018Z,25.02
2023-03-21T05:26:41.743Z,23.92
2023-03-21T05:29:11.871Z,31.33
2023-03-21T05:31:40.175Z,25.92
2023-03-21T05:34:08.555Z,31.85
2023-03-21T05:36:37.263Z,33.70
2023-03-21T05:39:05.957Z,30.27
2023-03-21T05:41:35.474Z,25.85
2023-03-21T05:44:04.121Z,23.30
2023-03-21T05:46:34.311Z,32.30
2023-03-21T05:49:02.770Z,31.00
2023-03-21T05:51:31.195Z,23.42
2023-03-21T05:53:59.465Z,30.45
2023-03-21T05:56:27.852Z,33.75
2023-03-21T05:58:56.146Z,29.70
2023-03-21T06:01:24.444Z,23.52
2023-03-21T06:03:54.342Z,28.02
2023-03-21T06:06:22.669Z,29.65
2023-03-21T06:08:51.037Z,26.38
2023-03-21T06:11:25.315Z,28.90
2023-03-21T06:13:54.242Z,29.17
2023-03-21T06:16:23.039Z,32.03
2023-03-21T06:18:51.459Z,21.00
2023-03-21T06:21:21.873Z,27.02
2023-03-21T06:23:51.886Z,21.85
2023-03-21T06:26:23.081Z,29.27
2023-03-21T06:28:51.616Z,24.65
2023-03-21T06:31:22.664Z,24.77
2023-03-21T06:33:53.087Z,26.38
2023-03-21T06:36:24.504Z,22.92
2023-03-21T06:38:52.839Z,20.65
2023-03-21T06:41:21.341Z,19.45
2023-03-21T06:43:49.718Z,19.20
2023-03-21T06:46:18.655Z,22.02
2023-03-21T06:48:47.163Z,23.35
2023-03-21T06:51:16.411Z,20.80
2023-03-21T06:53:46.788Z,18.50
2023-03-21T06:56:16.003Z,21.55
2023-03-21T06:58:44.630Z,24.73
2023-03-21T07:01:14.748Z,18.67
2023-03-21T07:03:43.394Z,23.27
2023-03-21T07:06:13.654Z,22.83
2023-03-21T07:08:42.694Z,26.38
2023-03-21T07:11:12.524Z,29.05
2023-03-21T07:13:40.889Z,26.75
2023-03-21T07:16:10.601Z,23.85
2023-03-21T07:18:39.292Z,19.70
2023-03-21T07:21:08.238Z,25.13
2023-03-21T07:23:38.145Z,20.98
2023-03-21T07:26:07.504Z,25.23
2023-03-21T07:28:37.571Z,24.17
2023-03-21T07:31:08.581Z,20.27
2023-03-21T07:33:36.925Z,22.85
2023-03-21T07:36:05.661Z,19.45
2023-03-21T07:38:34.204Z,22.70
2023-03-21T07:41:02.504Z,26.25
2023-03-21T07:43:30.794Z,25.55
2023-03-21T07:46:01.187Z,22.40
2023-03-21T07:48:29.643Z,22.98
2023-03-21T07:50:58.566Z,22.55
2023-03-21T07:53:27.478Z,23.52
2023-03-21T07:55:56.986Z,28.17
2023-03-21T07:58:25.775Z,18.60
2023-03-21T08:00:55.752Z,28.05
2023-03-21T08:03:26.587Z,29.98
2023-03-21T08:05:54.950Z,22.75
2023-03-21T08:08:23.270Z,26.60
2023-03-21T08:10:51.609Z,23.17
2023-03-21T08:13:20.054Z,25.10
2023-03-21T08:15:48.430Z,26.88
2023-03-21T08:18:16.836Z,27.15
2023-03-21T08:20:46.612Z,22.85
2023-03-21T08:23:15.652Z,18.70
2023-03-21T08:25:44.420Z,22.00
2023-03-21T08:28:12.794Z,23.05
2023-03-21T08:30:41.250Z,20.83
2023-03-21T08:33:14.536Z,22.42
2023-03-21T08:35:43.365Z,23.73
2023-03-21T08:38:13.582Z,21.65
2023-03-21T08:40:42.015Z,19.67
2023-03-21T08:43:11.465Z,25.10
2023-03-21T08:45:40.690Z,21.40
2023-03-21T08:48:09.092Z,23.08
2023-03-21T08:50:37.666Z,28.08
2023-03-21T08:53:05.964Z,29.33
2023-03-21T08:55:36.117Z,29.50
2023-03-21T08:58:04.877Z,22.63
2023-03-21T09:00:33.148Z,22.10
2023-03-21T09:03:01.612Z,20.00
2023-03-21T09:05:30.136Z,25.83
2023-03-21T09:07:58.512Z,27.08
2023-03-21T09:10:26.846Z,22.27
2023-03-21T09:12:57.408Z,21.60
2023-03-21T09:15:29.010Z,21.50
2023-03-21T09:17:58.982Z,29.98
2023-03-21T09:20:31.236Z,19.50
2023-03-21T09:23:02.120Z,25.07
2023-03-21T09:25:31.752Z,19.67
2023-03-21T09:28:05.403Z,19.95
2023-03-21T09:30:35.302Z,20.30
2023-03-21T09:33:06.782Z,21.55
2023-03-21T09:35:36.002Z,19.27
2023-03-21T09:38:05.782Z,16.58
2023-03-21T09:40:50.673Z,21.08
2023-03-21T09:43:28.508Z,24.70
2023-03-21T09:46:01.203Z,39.28
2023-03-21T09:51:16.387Z,22.85
2023-03-21T09:53:46.257Z,17.95
2023-03-21T09:56:15.520Z,15.30
2023-03-21T09:58:51.055Z,21.45
2023-03-21T10:01:27.367Z,16.92
2023-03-21T10:03:56.672Z,15.80
2023-03-21T10:06:28.921Z,19.40
2023-03-21T10:09:00.301Z,17.40
2023-03-21T10:11:30.428Z,19.90
2023-03-21T10:14:04.975Z,17.30
2023-03-21T10:16:34.779Z,16.30
2023-03-21T10:19:07.613Z,16.33
2023-03-21T10:21:59.040Z,18.63
2023-03-21T10:24:26.703Z,18.27
2023-03-21T10:26:56.008Z,20.75
2023-03-21T10:29:29.140Z,21.92
2023-03-21T10:31:57.979Z,10.05
2023-03-21T10:34:32.959Z,16.90
2023-03-21T10:37:03.602Z,19.58
2023-03-21T10:39:35.867Z,16.40
2023-03-21T10:42:04.614Z,14.52
2023-03-21T10:44:35.827Z,17.25
2023-03-21T10:47:08.109Z,12.15
2023-03-21T10:50:05.658Z,10.57
2023-03-21T10:52:29.367Z,15.77
2023-03-21T10:55:09.952Z,18.25
2023-03-21T10:57:39.067Z,12.77
2023-03-21T11:00:17.238Z,11.75
2023-03-21T11:02:49.942Z,12.32
2023-03-21T11:05:24.253Z,9.90
2023-03-21T11:08:04.767Z,11.45
2023-03-21T11:10:35.247Z,9.70
2023-03-21T11:13:08.045Z,10.93
2023-03-21T11:15:44.368Z,14.45
2023-03-21T11:18:17.596Z,13.98
2023-03-21T11:20:50.235Z,14.45
2023-03-21T11:23:20.775Z,10.02
2023-03-21T11:25:50.802Z,12.48
2023-03-21T11:28:21.108Z,9.50
2023-03-21T11:30:56.646Z,12.38
2023-03-21T11:33:29.135Z,12.00
2023-03-21T11:36:02.473Z,15.98
2023-03-21T11:41:02.754Z,18.08
2023-03-21T11:43:33.254Z,10.85
2023-03-21T11:46:08.488Z,12.73
2023-03-21T11:48:40.715Z,13.82
2023-03-21T11:51:16.611Z,16.27
2023-03-21T11:53:48.842Z,16.88
2023-03-21T11:56:29.618Z,15.23
2023-03-21T11:59:19.013Z,13.75
2023-03-21T12:01:57.912Z,16.77
2023-03-21T12:04:41.889Z,12.15
2023-03-21T12:07:29.706Z,13.27
2023-03-21T12:10:06.249Z,10.50
2023-03-21T12:12:40.250Z,12.48
2023-03-21T12:15:14.730Z,12.10
2023-03-21T12:17:51.792Z,6.18
2023-03-21T12:20:27.509Z,11.52
2023-03-21T12:23:05.008Z,9.23
2023-03-21T12:25:37.504Z,12.35
2023-03-21T12:28:19.094Z,14.48
2023-03-21T12:30:59.501Z,7.88
2023-03-21T12:33:41.929Z,10.52
2023-03-21T12:36:22.005Z,14.20
2023-03-21T12:38:57.737Z,7.35
2023-03-21T12:41:27.623Z,5.53
2023-03-21T12:44:01.061Z,13.52
2023-03-21T12:49:03.183Z,8.82
2023-03-21T12:51:34.026Z,8.35
2023-03-21T12:54:12.463Z,8.15
2023-03-21T12:56:47.494Z,6.07
2023-03-21T12:59:22.237Z,9.68
2023-03-21T13:01:52.711Z,7.20
2023-03-21T13:04:39.739Z,10.02
2023-03-21T13:07:10.434Z,5.65
2023-03-21T13:09:40.302Z,14.27
2023-03-21T13:12:18.955Z,12.82
2023-03-21T13:14:54.350Z,8.88
2023-03-21T13:17:27.117Z,8.57
2023-03-21T13:20:01.537Z,10.35
2023-03-21T13:22:32.203Z,15.45
2023-03-21T13:25:02.574Z,8.13
2023-03-21T13:27:33.796Z,9.82
2023-03-21T13:30:06.786Z,10.13
2023-03-21T13:32:40.248Z,10.35
2023-03-21T13:35:18.106Z,6.43
2023-03-21T13:37:53.254Z,9.70
2023-03-21T13:40:23.997Z,7.22
2023-03-21T13:42:54.240Z,8.98
2023-03-21T13:45:28.880Z,8.95
2023-03-21T13:47:58.541Z,7.13
2023-03-21T13:50:36.726Z,7.03
2023-03-21T13:53:33.737Z,6.38
2023-03-21T13:56:22.318Z,10.57
2023-03-21T13:59:01.560Z,6.78
2023-03-21T14:01:34.564Z,9.02
2023-03-21T14:04:08.744Z,8.50
2023-03-21T14:06:44.115Z,9.50
2023-03-21T14:09:19.921Z,2.20
2023-03-21T14:11:49.244Z,9.55
2023-03-21T14:14:17.576Z,6.20
2023-03-21T14:16:46.063Z,6.60
2023-03-21T14:19:14.497Z,7.22
2023-03-21T14:21:53.681Z,7.03
2023-03-21T14:24:22.969Z,7.82
2023-03-21T14:26:52.879Z,11.43
2023-03-21T14:29:26.892Z,9.55
2023-03-21T14:31:56.741Z,11.75
2023-03-21T14:34:26.795Z,10.90
2023-03-21T14:36:58.789Z,13.10
2023-03-21T14:39:29.943Z,14.88
2023-03-21T14:42:02.977Z,8.18
2023-03-21T14:44:44.070Z,9.80
2023-03-21T14:47:20.638Z,12.05
2023-03-21T14:49:50.556Z,20.48
2023-03-21T14:52:23.789Z,12.52
2023-03-21T14:57:22.769Z,11.45
2023-03-21T14:59:53.233Z,12.15
2023-03-21T15:02:24.374Z,13.65
2023-03-21T15:04:54.370Z,11.93
2023-03-21T15:07:32.517Z,14.85
2023-03-21T15:10:04.981Z,14.43
2023-03-21T15:12:33.803Z,8.80
2023-03-21T15:15:03.383Z,15.88
2023-03-21T15:17:32.583Z,14.27
2023-03-21T15:20:01.035Z,14.32
2023-03-21T15:22:34.864Z,13.82
2023-03-21T15:25:05.506Z,14.27
2023-03-21T15:27:36.558Z,17.52
2023-03-21T15:30:06.409Z,21.85
2023-03-21T15:32:36.915Z,22.90
2023-03-21T15:35:09.010Z,13.90
2023-03-21T15:37:39.691Z,13.20
2023-03-21T15:40:11.522Z,17.60
2023-03-21T15:42:42.244Z,19.85
2023-03-21T15:45:18.995Z,12.27
2023-03-21T15:47:56.200Z,15.75
2023-03-21T15:50:29.590Z,10.38
2023-03-21T15:55:35.518Z,8.88
2023-03-21T15:58:06.958Z,18.33
2023-03-21T16:00:40.343Z,16.55
2023-03-21T16:03:12.007Z,12.82
2023-03-21T16:05:40.375Z,14.70
2023-03-21T16:08:21.857Z,11.27
2023-03-21T16:10:50.641Z,17.05
2023-03-21T16:13:19.309Z,12.60
2023-03-21T16:15:47.853Z,19.25
2023-03-21T16:18:17.445Z,15.38
2023-03-21T16:20:49.362Z,21.27
2023-03-21T16:23:19.244Z,18.10
2023-03-21T16:25:47.540Z,20.38
2023-03-21T16:28:17.623Z,18.98
2023-03-21T16:30:46.112Z,17.50
2023-03-21T16:33:15.058Z,24.98
2023-03-21T16:35:43.499Z,14.43
2023-03-21T16:38:14.227Z,23.60
2023-03-21T16:40:44.467Z,20.55
2023-03-21T16:43:13.419Z,16.60
2023-03-21T16:45:42.131Z,14.50
2023-03-21T16:48:16.770Z,22.83
2023-03-21T16:50:49.082Z,25.17
2023-03-21T16:53:18.194Z,17.85
2023-03-21T16:55:48.264Z,15.23
2023-03-21T16:58:16.969Z,16.88
2023-03-21T17:00:45.600Z,17.45
2023-03-21T17:03:19.432Z,21.42
2023-03-21T17:05:48.047Z,21.17
2023-03-21T17:08:21.088Z,21.55
2023-03-21T17:10:51.231Z,21.13
2023-03-21T17:13:19.628Z,19.85
2023-03-21T17:15:49.765Z,22.77
2023-03-21T17:18:18.165Z,17.52
2023-03-21T17:20:46.518Z,24.98
2023-03-21T17:23:14.787Z,27.45
2023-03-21T17:25:44.935Z,25.60
2023-03-21T17:28:14.677Z,19.23
2023-03-21T17:30:43.708Z,17.88
2023-03-21T17:33:12.424Z,15.18
2023-03-21T17:35:40.916Z,16.25
2023-03-21T17:38:14.396Z,17.48
2023-03-21T17:40:43.275Z,10.65
2023-03-21T17:43:17.072Z,23.88
2023-03-21T17:45:45.893Z,19.25
2023-03-21T17:48:14.276Z,30.48
2023-03-21T17:50:43.440Z,26.75
2023-03-21T17:53:11.813Z,21.27
2023-03-21T17:55:40.800Z,22.98
2023-03-21T17:58:11.223Z,32.30
2023-03-21T18:00:41.856Z,36.83
2023-03-21T18:03:10.272Z,16.73
2023-03-21T18:05:38.619Z,16.48
2023-03-21T18:08:11.346Z,23.88
2023-03-21T18:10:41.941Z,12.88
2023-03-21T18:13:11.455Z,15.55
2023-03-21T18:15:44.786Z,13.60
2023-03-21T18:18:14.118Z,19.33
2023-03-21T18:20:52.035Z,13.13
2023-03-21T18:23:21.347Z,12.23
2023-03-21T18:25:50.001Z,12.30
2023-03-21T18:28:21.091Z,13.18
2023-03-21T18:31:10.266Z,11.48
2023-03-21T18:33:41.866Z,10.95
2023-03-21T18:36:13.829Z,11.90
2023-03-21T18:38:42.796Z,13.82
2023-03-21T18:41:13.657Z,16.13
2023-03-21T18:46:33.229Z,13.00
2023-03-21T18:49:48.159Z,14.30
2023-03-21T18:51:53.941Z,19.58
2023-03-21T18:54:23.610Z,16.58
2023-03-21T18:59:41.288Z,25.10
2023-03-21T19:02:13.279Z,14.00
2023-03-21T19:04:41.735Z,13.68
2023-03-21T19:07:10.470Z,13.95
2023-03-21T19:10:01.487Z,15.40
2023-03-21T19:12:27.671Z,18.80
2023-03-21T19:14:56.752Z,18.60
2023-03-21T19:18:21.796Z,16.50
2023-03-21T19:20:16.685Z,22.77
2023-03-21T19:22:45.243Z,17.92
2023-03-21T19:25:14.677Z,18.20
2023-03-21T19:27:43.140Z,17.27
2023-03-21T19:30:15.386Z,20.52
2023-03-21T19:32:46.238Z,23.85
2023-03-21T19:35:15.094Z,10.30
2023-03-21T19:37:43.322Z,28.92
2023-03-21T19:40:12.424Z,21.13
2023-03-21T19:42:42.032Z,28.60
2023-03-21T19:45:12.179Z,26.70
2023-03-21T19:47:40.704Z,22.33
2023-03-21T19:53:01.153Z,28.23
2023-03-21T19:55:29.475Z,20.63
2023-03-21T19:57:57.813Z,27.08
2023-03-21T20:00:26.269Z,20.92
2023-03-21T20:02:54.780Z,25.75
2023-03-21T20:05:25.821Z,30.55
2023-03-21T20:07:55.414Z,28.85
2023-03-21T20:10:23.767Z,22.85
2023-03-21T20:12:52.168Z,25.48
2023-03-21T20:15:22.200Z,21.63
2023-03-21T20:17:53.524Z,24.45
2023-03-21T20:20:22.037Z,25.77
2023-03-21T20:23:06.264Z,20.23
2023-03-21T20:25:36.389Z,19.55
2023-03-21T20:28:25.925Z,16.67
2023-03-21T20:30:57.087Z,21.48
2023-03-21T20:33:25.820Z,12.52
2023-03-21T20:36:37.381Z,14.75
2023-03-21T20:38:49.040Z,19.42
2023-03-21T20:41:17.381Z,14.35
2023-03-21T20:46:37.502Z,14.52
2023-03-21T20:49:07.616Z,20.67
2023-03-21T20:54:26.444Z,17.73
2023-03-21T20:56:55.436Z,18.13
2023-03-21T20:59:27.610Z,17.60
2023-03-21T21:01:57.557Z,13.30
2023-03-21T21:04:44.338Z,17.58
2023-03-21T21:07:16.290Z,17.27
2023-03-21T21:09:46.912Z,18.38
2023-03-21T21:12:16.590Z,20.13
2023-03-21T21:14:45.492Z,17.00
2023-03-21T21:17:31.143Z,17.95
2023-03-21T21:20:12.264Z,9.65
2023-03-21T21:22:42.872Z,15.90
2023-03-21T21:27:43.803Z,16.88
2023-03-21T21:30:13.758Z,15.10
2023-03-21T21:32:43.003Z,17.55
2023-03-21T21:35:11.896Z,17.48
2023-03-21T21:37:42.096Z,17.85
2023-03-21T21:40:13.769Z,17.08
2023-03-21T21:42:45.198Z,15.73
2023-03-21T21:45:14.757Z,17.35
2023-03-21T21:47:45.588Z,16.67
2023-03-21T21:50:14.383Z,17.30
2023-03-21T21:52:44.216Z,16.60
2023-03-21T21:55:13.321Z,19.27
2023-03-21T21:57:41.752Z,17.08
2023-03-21T22:00:13.922Z,19.92
2023-03-21T22:02:42.676Z,16.88
2023-03-21T22:05:11.769Z,16.52
2023-03-21T22:07:40.110Z,15.35
2023-03-21T22:10:09.337Z,17.05
2023-03-21T22:12:37.754Z,16.33
2023-03-21T22:15:07.487Z,15.82
2023-03-21T22:17:37.433Z,15.27
2023-03-21T22:20:08.237Z,12.77
2023-03-21T22:22:37.111Z,12.85
2023-03-21T22:25:06.840Z,16.58
2023-03-21T22:27:35.619Z,13.80
2023-03-21T22:30:04.987Z,16.30
2023-03-21T22:32:37.291Z,14.05
2023-03-21T22:35:07.113Z,14.82
2023-03-21T22:37:37.661Z,12.43
2023-03-21T22:40:08.441Z,14.63
2023-03-21T22:42:37.366Z,13.70
2023-03-21T22:45:06.540Z,10.68
2023-03-21T22:47:36.351Z,16.63
2023-03-21T22:50:05.634Z,15.00
2023-03-21T22:52:34.481Z,16.60
2023-03-21T22:55:02.764Z,17.65
2023-03-21T22:57:31.611Z,12.45
2023-03-21T22:59:59.925Z,13.73
2023-03-21T23:02:28.824Z,15.60
2023-03-21T23:04:59.013Z,12.00
2023-03-21T23:07:27.327Z,16.23
2023-03-21T23:09:55.985Z,16.25
2023-03-21T23:12:24.373Z,12.95
2023-03-21T23:14:52.802Z,13.48
2023-03-21T23:17:21.175Z,14.52
2023-03-21T23:19:49.611Z,10.35
2023-03-21T23:22:19.543Z,12.85
2023-03-21T23:24:49.256Z,15.73
2023-03-21T23:27:18.272Z,13.55
2023-03-21T23:29:47.148Z,12.88
2023-03-21T23:32:15.542Z,16.83
2023-03-21T23:34:43.844Z,11.05
2023-03-21T23:37:12.599Z,10.13
2023-03-21T23:39:42.562Z,13.50
2023-03-21T23:42:10.984Z,12.65
2023-03-21T23:44:39.483Z,11.30
2023-03-21T23:47:07.857Z,15.15
2023-03-21T23:49:39.216Z,13.82
2023-03-21T23:52:07.716Z,13.50
2023-03-21T23:54:36.072Z,12.75
2023-03-21T23:57:07.172Z,13.52
2023-03-21T23:59:35.459Z,12.20
